Time;durP1;ratioP1;P1;durP2;ratioP2;P2;SDS_P1;SDS_P2;PMS_P1;PMS_P2;Temp;Humidity;BMP_temperature;BMP_pressure;BME280_temperature;BME280_humidity;BME280_pressure;Samples;Min_cycle;Max_cycle;Signal;HPM_P1;HPM_P2
2022/01/13 00:01:50;;;;;;;0.30;0.10;;;-1.60;99.90;;;;;;5084881;28;20200;-86
2022/01/13 00:04:19;;;;;;;0.30;0.20;;;-1.60;99.90;;;;;;5072030;28;20283;-86
2022/01/13 00:06:46;;;;;;;0.30;0.10;;;-1.60;99.90;;;;;;5072157;28;20825;-86
2022/01/13 00:09:14;;;;;;;0.30;0.10;;;-1.50;99.90;;;;;;5084830;28;20249;-88
2022/01/13 00:11:42;;;;;;;0.30;0.20;;;-1.60;99.90;;;;;;5076171;28;20212;-88
2022/01/13 00:14:24;;;;;;;0.30;0.10;;;-1.60;99.90;;;;;;5084702;28;20543;-87
2022/01/13 00:17:10;;;;;;;0.30;0.10;;;-1.60;99.90;;;;;;5091343;28;20536;-89
2022/01/13 00:19:57;;;;;;;0.95;0.95;;;-1.60;99.90;;;;;;5083118;28;20209;-88
2022/01/13 00:22:40;;;;;;;0.30;0.10;;;-1.60;99.90;;;;;;5091148;28;20197;-87
2022/01/13 00:25:11;;;;;;;0.30;0.20;;;-1.60;99.90;;;;;;5074806;28;20714;-88
2022/01/13 00:27:42;;;;;;;0.30;0.20;;;-1.70;99.90;;;;;;5080862;28;20543;-88
2022/01/13 00:30:15;;;;;;;0.30;0.10;;;-1.70;99.90;;;;;;5080239;28;20518;-86
2022/01/13 00:32:42;;;;;;;0.30;0.20;;;-1.70;99.90;;;;;;5096984;28;20207;-88
2022/01/13 00:35:11;;;;;;;0.30;0.20;;;-1.70;99.90;;;;;;5094881;28;20332;-86
2022/01/13 00:37:40;;;;;;;0.30;0.10;;;-1.70;99.90;;;;;;5105129;28;20193;-86
2022/01/13 00:40:09;;;;;;;0.30;0.10;;;-1.70;99.90;;;;;;5096958;28;20554;-89
2022/01/13 00:42:36;;;;;;;0.30;0.10;;;-1.70;99.90;;;;;;5072897;28;20197;-86
2022/01/13 00:45:03;;;;;;;0.30;0.10;;;-1.80;99.90;;;;;;5086461;28;20721;-86
2022/01/13 00:47:31;;;;;;;0.30;0.20;;;-1.80;99.90;;;;;;5076379;28;20201;-89
2022/01/13 00:49:58;;;;;;;0.30;0.10;;;-1.80;99.90;;;;;;5077333;28;20197;-87
2022/01/13 00:52:26;;;;;;;0.30;0.20;;;-1.80;99.90;;;;;;5091837;28;20207;-87
2022/01/13 00:54:56;;;;;;;0.43;0.43;;;-1.80;99.90;;;;;;5083056;28;20506;-87
2022/01/13 00:57:23;;;;;;;0.57;0.57;;;-1.80;99.90;;;;;;5076449;28;20264;-88
2022/01/13 00:59:50;;;;;;;2.05;1.95;;;-1.80;99.90;;;;;;5090969;28;20284;-88
2022/01/13 01:02:17;;;;;;;0.30;0.10;;;-1.80;99.90;;;;;;5083155;28;20603;-89
2022/01/13 01:04:44;;;;;;;0.30;0.10;;;-1.80;99.90;;;;;;5075139;28;20514;-86
2022/01/13 01:07:11;;;;;;;0.30;0.10;;;-1.80;99.90;;;;;;5076671;28;20193;-87
2022/01/13 01:09:40;;;;;;;0.30;0.10;;;-1.80;99.90;;;;;;5087380;28;20234;-89
2022/01/13 01:12:08;;;;;;;0.30;0.10;;;-1.80;99.90;;;;;;5071342;28;20212;-88
2022/01/13 01:14:40;;;;;;;0.30;0.20;;;-1.80;99.90;;;;;;5072690;28;20600;-88
2022/01/13 01:17:07;;;;;;;0.60;0.60;;;-1.80;99.90;;;;;;5089997;28;20227;-89
2022/01/13 01:19:36;;;;;;;1.73;1.63;;;-1.70;99.90;;;;;;5076808;28;20258;-87
2022/01/13 01:22:35;;;;;;;0.30;0.10;;;-1.80;99.90;;;;;;5078935;28;20229;-89
2022/01/13 01:27:51;;;;;;;0.77;0.77;;;-1.80;99.90;;;;;;5068450;28;20189;-88
2022/01/13 01:30:28;;;;;;;0.30;0.10;;;-1.80;99.90;;;;;;5072977;28;20199;-88
2022/01/13 01:32:55;;;;;;;0.30;0.10;;;-1.80;99.90;;;;;;5074387;28;20275;-88
2022/01/13 01:35:25;;;;;;;0.30;0.10;;;-1.80;99.90;;;;;;5081389;28;20217;-87
2022/01/13 01:37:53;;;;;;;0.30;0.10;;;-1.80;99.90;;;;;;5071295;28;20197;-88
2022/01/13 01:40:23;;;;;;;2.58;1.00;;;-1.80;99.90;;;;;;5074903;28;20518;-87
2022/01/13 01:42:50;;;;;;;0.60;0.60;;;-1.80;99.90;;;;;;5070713;28;20276;-86
2022/01/13 01:45:19;;;;;;;0.30;0.10;;;-1.80;99.90;;;;;;5084973;28;20220;-87
2022/01/13 01:47:50;;;;;;;0.40;0.30;;;-1.80;99.90;;;;;;5072940;28;20220;-86
2022/01/13 01:50:20;;;;;;;0.30;0.10;;;-1.70;99.90;;;;;;5077928;28;20652;-89
2022/01/13 01:52:48;;;;;;;1.88;0.68;;;-1.80;99.90;;;;;;5090088;28;20241;-87
2022/01/13 01:55:16;;;;;;;1.77;0.75;;;-1.80;99.90;;;;;;5082548;28;20253;-87
2022/01/13 01:57:47;;;;;;;0.30;0.20;;;-1.80;99.90;;;;;;5083991;28;20229;-89
2022/01/13 02:00:17;;;;;;;0.40;0.30;;;-1.80;99.90;;;;;;5085659;28;20185;-87
2022/01/13 02:02:45;;;;;;;0.38;0.17;;;-1.80;99.90;;;;;;5071963;28;20713;-88
2022/01/13 02:05:12;;;;;;;1.30;1.20;;;-1.80;99.90;;;;;;5087737;28;20246;-89
2022/01/13 02:07:40;;;;;;;0.30;0.10;;;-1.80;99.90;;;;;;5104124;28;20262;-90
2022/01/13 02:10:08;;;;;;;0.40;0.22;;;-1.80;99.90;;;;;;5092424;28;20195;-88
2022/01/13 02:12:40;;;;;;;0.30;0.20;;;-1.80;99.90;;;;;;5087987;28;20263;-89
2022/01/13 02:15:32;;;;;;;0.30;0.10;;;-1.90;99.90;;;;;;5084045;28;20202;-86
2022/01/13 02:18:02;;;;;;;1.67;0.77;;;-1.90;99.90;;;;;;5075080;28;20193;-89
2022/01/13 02:20:47;;;;;;;0.30;0.10;;;-1.90;99.90;;;;;;5088988;28;20193;-87
2022/01/13 02:23:14;;;;;;;0.30;0.10;;;-1.90;99.90;;;;;;5090457;28;20710;-89
2022/01/13 02:25:41;;;;;;;0.30;0.10;;;-1.80;99.90;;;;;;5072682;28;20274;-88
2022/01/13 02:28:08;;;;;;;0.30;0.10;;;-1.90;99.90;;;;;;5084999;28;20204;-86
2022/01/13 02:30:35;;;;;;;0.30;0.10;;;-1.90;99.90;;;;;;5075567;28;20197;-87
2022/01/13 02:33:02;;;;;;;0.30;0.10;;;-1.90;99.90;;;;;;5087906;28;20200;-88
2022/01/13 02:35:36;;;;;;;0.30;0.10;;;-1.90;99.90;;;;;;5077947;28;20220;-88
2022/01/13 02:38:10;;;;;;;0.30;0.10;;;-1.90;99.90;;;;;;5088068;28;20204;-88
2022/01/13 02:40:37;;;;;;;0.30;0.20;;;-1.90;99.90;;;;;;5090127;28;20198;-87
2022/01/13 02:43:04;;;;;;;2.35;0.95;;;-1.90;99.90;;;;;;5090289;28;20262;-88
2022/01/13 02:45:34;;;;;;;0.30;0.10;;;-1.90;99.90;;;;;;5082717;28;20641;-87
2022/01/13 02:48:26;;;;;;;0.30;0.20;;;-1.90;99.90;;;;;;5081853;28;20193;-88
2022/01/13 02:50:54;;;;;;;0.30;0.10;;;-1.90;99.90;;;;;;5084250;28;20217;-88
2022/01/13 02:53:24;;;;;;;0.30;0.10;;;-2.00;99.90;;;;;;5077736;28;20205;-88
2022/01/13 02:55:54;;;;;;;0.30;0.10;;;-2.00;99.90;;;;;;5074882;28;20208;-88
2022/01/13 02:58:21;;;;;;;0.30;0.10;;;-1.90;99.90;;;;;;5079944;28;20308;-87
2022/01/13 03:00:48;;;;;;;0.30;0.10;;;-1.90;99.90;;;;;;5091205;28;20189;-87
2022/01/13 03:03:15;;;;;;;0.30;0.20;;;-1.90;99.90;;;;;;5093535;28;20197;-88
2022/01/13 03:05:42;;;;;;;0.30;0.10;;;-1.90;99.90;;;;;;5091085;28;20201;-88
2022/01/13 03:08:10;;;;;;;0.30;0.10;;;-1.80;99.90;;;;;;5092321;28;20278;-87
2022/01/13 03:10:39;;;;;;;0.30;0.20;;;-1.80;99.90;;;;;;5090194;28;20225;-88
2022/01/13 03:13:07;;;;;;;0.30;0.10;;;-1.80;99.90;;;;;;5081137;28;20271;-88
2022/01/13 03:15:34;;;;;;;0.30;0.10;;;-1.80;99.90;;;;;;5083863;28;20204;-88
2022/01/13 03:18:01;;;;;;;0.30;0.10;;;-1.80;99.90;;;;;;5091540;28;20258;-87
2022/01/13 03:20:28;;;;;;;0.40;0.38;;;-1.70;99.90;;;;;;5086630;28;20231;-90
2022/01/13 03:22:55;;;;;;;0.30;0.10;;;-1.70;99.90;;;;;;5083179;28;20225;-88
2022/01/13 03:25:24;;;;;;;0.30;0.10;;;-1.70;99.90;;;;;;5072940;28;20629;-89
2022/01/13 03:27:57;;;;;;;0.30;0.10;;;-1.70;99.90;;;;;;5072588;28;20251;-87
2022/01/13 03:30:25;;;;;;;0.30;0.20;;;-1.70;99.90;;;;;;5085022;28;20198;-88
2022/01/13 03:32:52;;;;;;;0.30;0.10;;;-1.70;99.90;;;;;;5079856;28;20203;-88
2022/01/13 03:35:19;;;;;;;0.90;0.90;;;-1.80;99.90;;;;;;5090622;28;20349;-88
2022/01/13 03:37:46;;;;;;;0.30;0.20;;;-1.70;99.90;;;;;;5089770;28;20229;-89
2022/01/13 03:40:14;;;;;;;0.30;0.10;;;-1.70;99.90;;;;;;5092448;28;20201;-89
2022/01/13 03:42:41;;;;;;;0.30;0.10;;;-1.70;99.90;;;;;;5108369;28;20216;-87
2022/01/13 03:45:10;;;;;;;0.30;0.10;;;-1.80;99.90;;;;;;5097198;28;20442;-87
2022/01/13 03:47:37;;;;;;;0.30;0.10;;;-1.70;99.90;;;;;;5109377;28;20239;-87
2022/01/13 03:50:05;;;;;;;6.82;1.55;;;-1.70;99.90;;;;;;5087260;28;20201;-88
2022/01/13 03:53:11;;;;;;;0.30;0.10;;;-1.70;99.90;;;;;;5078604;28;20238;-87
2022/01/13 03:56:54;;;;;;;0.30;0.10;;;-1.80;99.90;;;;;;5073117;28;20202;-88
2022/01/13 03:59:51;;;;;;;0.30;0.10;;;-1.70;99.90;;;;;;5066756;28;20833;-88
2022/01/13 04:02:19;;;;;;;0.30;0.10;;;-1.70;99.90;;;;;;5068343;28;20193;-88
2022/01/13 04:04:48;;;;;;;0.30;0.10;;;-1.70;99.90;;;;;;5070104;28;20202;-86
2022/01/13 04:07:18;;;;;;;0.85;0.85;;;-1.70;99.90;;;;;;5053079;28;20199;-88
2022/01/13 04:10:27;;;;;;;1.42;0.82;;;-1.70;99.90;;;;;;5069404;28;20781;-88
2022/01/13 04:12:55;;;;;;;0.40;0.30;;;-1.70;99.90;;;;;;5057031;28;20202;-88
2022/01/13 04:15:24;;;;;;;0.30;0.10;;;-1.70;99.90;;;;;;5065642;28;20202;-88
2022/01/13 04:17:53;;;;;;;0.30;0.10;;;-1.80;99.90;;;;;;5051926;28;20227;-90
2022/01/13 04:20:20;;;;;;;0.40;0.32;;;-1.80;99.90;;;;;;5057459;28;20252;-89
2022/01/13 04:22:48;;;;;;;0.30;0.10;;;-1.80;99.90;;;;;;5067321;28;20511;-88
2022/01/13 04:25:21;;;;;;;0.30;0.10;;;-1.80;99.90;;;;;;5056949;28;20193;-89
2022/01/13 04:27:48;;;;;;;0.30;0.10;;;-1.80;99.90;;;;;;5071488;28;20254;-89
2022/01/13 04:33:03;;;;;;;0.30;0.10;;;-1.70;99.90;;;;;;5057411;28;20209;-87
2022/01/13 04:35:30;;;;;;;0.30;0.10;;;-1.70;99.90;;;;;;5052329;28;20252;-89
2022/01/13 04:37:57;;;;;;;0.30;0.10;;;-1.70;99.90;;;;;;5051171;28;20473;-86
2022/01/13 04:40:24;;;;;;;0.30;0.10;;;-1.70;99.90;;;;;;5058236;28;20675;-87
2022/01/13 04:42:55;;;;;;;1.35;1.25;;;-1.70;99.90;;;;;;5062624;28;20657;-89
2022/01/13 04:45:24;;;;;;;0.30;0.10;;;-1.70;99.90;;;;;;5067387;28;20197;-87
2022/01/13 04:47:54;;;;;;;0.30;0.10;;;-1.80;99.90;;;;;;5064882;28;20255;-88
2022/01/13 04:50:24;;;;;;;0.30;0.20;;;-1.90;99.90;;;;;;5066727;28;20209;-86
2022/01/13 04:52:51;;;;;;;0.30;0.10;;;-1.90;99.90;;;;;;5067793;28;20205;-88
2022/01/13 04:55:24;;;;;;;0.30;0.10;;;-1.90;99.90;;;;;;5070348;28;20186;-87
2022/01/13 04:57:52;;;;;;;0.30;0.10;;;-1.90;99.90;;;;;;5071626;28;20236;-87
2022/01/13 05:00:19;;;;;;;0.30;0.10;;;-1.90;99.90;;;;;;5091670;28;20240;-86
2022/01/13 05:02:46;;;;;;;0.30;0.10;;;-1.90;99.90;;;;;;5083171;28;20239;-90
2022/01/13 05:05:13;;;;;;;0.30;0.10;;;-2.00;99.90;;;;;;5079645;28;20222;-87
2022/01/13 05:07:41;;;;;;;0.30;0.10;;;-2.00;99.90;;;;;;5074274;28;20200;-87
2022/01/13 05:10:10;;;;;;;0.30;0.20;;;-2.10;99.90;;;;;;5074107;28;20659;-89
2022/01/13 05:12:41;;;;;;;0.60;0.52;;;-2.00;99.90;;;;;;5090807;28;20209;-88
2022/01/13 05:15:14;;;;;;;0.30;0.20;;;-2.00;99.90;;;;;;5091097;28;20189;-89
2022/01/13 05:20:40;;;;;;;0.30;0.10;;;-2.10;99.90;;;;;;5105496;28;20188;-87
2022/01/13 05:23:10;;;;;;;0.30;0.10;;;-2.10;99.90;;;;;;5104336;28;20227;-86
2022/01/13 05:25:38;;;;;;;0.30;0.10;;;-2.10;99.90;;;;;;5103335;28;20266;-88
2022/01/13 05:28:06;;;;;;;0.30;0.17;;;-2.10;99.90;;;;;;5106615;28;20209;-86
2022/01/13 05:30:33;;;;;;;0.30;0.10;;;-2.10;99.90;;;;;;5092577;28;20197;-89
2022/01/13 05:33:00;;;;;;;0.30;0.10;;;-2.10;99.90;;;;;;5091568;28;20624;-87
2022/01/13 05:35:27;;;;;;;0.30;0.20;;;-2.10;99.90;;;;;;5072680;28;20197;-87
2022/01/13 05:37:55;;;;;;;0.30;0.10;;;-2.10;99.90;;;;;;5070420;28;20217;-87
2022/01/13 05:40:24;;;;;;;0.30;0.10;;;-2.10;99.90;;;;;;5070636;28;20549;-87
2022/01/13 05:42:51;;;;;;;0.77;0.63;;;-2.10;99.90;;;;;;5070687;28;20645;-88
2022/01/13 05:45:20;;;;;;;0.30;0.20;;;-2.10;99.90;;;;;;5070519;28;20201;-87
2022/01/13 05:47:50;;;;;;;0.30;0.10;;;-2.10;99.90;;;;;;5070117;28;20578;-88
2022/01/13 05:50:19;;;;;;;2.33;2.22;;;-2.10;99.90;;;;;;5070257;28;20197;-87
2022/01/13 05:52:47;;;;;;;0.30;0.10;;;-2.10;99.90;;;;;;5090741;28;20246;-87
2022/01/13 05:55:15;;;;;;;0.40;0.30;;;-2.10;99.90;;;;;;5090025;28;20201;-87
2022/01/13 05:57:44;;;;;;;0.30;0.10;;;-2.10;99.90;;;;;;5089479;28;20639;-87
2022/01/13 06:00:13;;;;;;;0.30;0.10;;;-2.00;99.90;;;;;;5085000;28;20201;-86
2022/01/13 06:02:41;;;;;;;0.30;0.10;;;-2.10;99.90;;;;;;5089640;28;20201;-87
2022/01/13 06:05:09;;;;;;;0.65;0.50;;;-2.10;99.90;;;;;;5089314;28;20185;-87
2022/01/13 06:07:36;;;;;;;2.05;1.85;;;-2.10;99.90;;;;;;5089397;28;20746;-87
2022/01/13 06:10:04;;;;;;;0.30;0.17;;;-2.10;99.90;;;;;;5089468;28;20197;-87
2022/01/13 06:12:35;;;;;;;0.30;0.10;;;-2.10;99.90;;;;;;5090431;28;20201;-86
2022/01/13 06:15:05;;;;;;;0.77;0.77;;;-2.10;99.90;;;;;;5080819;28;20201;-88
2022/01/13 06:17:32;;;;;;;0.30;0.10;;;-2.10;99.90;;;;;;5089906;28;20806;-88
2022/01/13 06:20:00;;;;;;;0.30;0.10;;;-2.10;99.90;;;;;;5084463;28;20212;-88
2022/01/13 06:22:27;;;;;;;0.30;0.10;;;-2.10;99.90;;;;;;5090206;28;20216;-87
2022/01/13 06:24:54;;;;;;;0.30;0.15;;;-2.00;99.90;;;;;;5090369;28;20258;-87
2022/01/13 06:27:22;;;;;;;0.40;0.32;;;-2.00;99.90;;;;;;5083360;28;20714;-86
2022/01/13 06:29:51;;;;;;;0.30;0.10;;;-2.00;99.90;;;;;;5070117;28;20597;-87
2022/01/13 06:32:20;;;;;;;0.30;0.10;;;-2.00;99.90;;;;;;5070064;28;20205;-87
2022/01/13 06:34:47;;;;;;;0.30;0.10;;;-2.00;99.90;;;;;;5068826;28;20259;-87
2022/01/13 06:37:14;;;;;;;0.30;0.10;;;-2.00;99.90;;;;;;5069944;28;20214;-88
2022/01/13 06:39:41;;;;;;;2.70;2.28;;;-2.10;99.90;;;;;;5069270;28;20197;-87
2022/01/13 06:42:09;;;;;;;0.30;0.10;;;-2.10;99.90;;;;;;5069536;28;20771;-87
2022/01/13 06:44:36;;;;;;;0.30;0.10;;;-2.00;99.90;;;;;;5070039;28;20691;-88
2022/01/13 06:47:04;;;;;;;0.30;0.10;;;-2.10;99.90;;;;;;5071454;28;20198;-86
2022/01/13 06:49:33;;;;;;;0.30;0.10;;;-2.10;99.90;;;;;;5078481;28;20198;-87
2022/01/13 06:52:00;;;;;;;0.50;0.50;;;-2.20;99.90;;;;;;5097733;28;20197;-86
2022/01/13 06:54:28;;;;;;;0.30;0.10;;;-2.20;99.90;;;;;;5108803;28;20193;-85
2022/01/13 06:56:55;;;;;;;0.30;0.10;;;-2.10;99.90;;;;;;5110460;28;20233;-87
2022/01/13 06:59:22;;;;;;;0.30;0.10;;;-2.10;99.90;;;;;;5111526;28;20227;-86
2022/01/13 07:01:50;;;;;;;0.30;0.10;;;-2.10;99.90;;;;;;5103119;28;20553;-86
2022/01/13 07:04:17;;;;;;;0.30;0.10;;;-2.10;99.90;;;;;;5094732;28;20246;-87
2022/01/13 07:06:47;;;;;;;2.25;2.05;;;-2.10;99.90;;;;;;5091871;28;20209;-86
2022/01/13 07:09:17;;;;;;;0.30;0.20;;;-2.10;99.90;;;;;;5070548;28;20711;-86
2022/01/13 07:11:45;;;;;;;0.30;0.10;;;-2.20;99.90;;;;;;5075327;28;20671;-87
2022/01/13 07:14:12;;;;;;;0.30;0.10;;;-2.10;99.90;;;;;;5090287;28;20250;-86
2022/01/13 07:16:41;;;;;;;0.40;0.35;;;-2.10;99.90;;;;;;5089510;28;20197;-88
2022/01/13 07:19:10;;;;;;;0.30;0.10;;;-2.20;99.90;;;;;;5089657;28;20591;-87
2022/01/13 07:21:39;;;;;;;0.30;0.10;;;-2.20;99.90;;;;;;5089508;28;20201;-86
2022/01/13 07:24:08;;;;;;;0.30;0.10;;;-2.20;99.90;;;;;;5088031;28;20245;-87
2022/01/13 07:26:35;;;;;;;0.30;0.10;;;-2.20;99.90;;;;;;5089097;28;20197;-87
2022/01/13 07:29:03;;;;;;;1.38;0.65;;;-2.40;99.90;;;;;;5088676;28;20206;-86
2022/01/13 07:31:30;;;;;;;0.40;0.30;;;-2.30;99.90;;;;;;5087109;28;20240;-87
2022/01/13 07:33:57;;;;;;;0.30;0.10;;;-2.20;99.90;;;;;;5088371;28;20687;-87
2022/01/13 07:36:25;;;;;;;1.15;0.63;;;-2.30;99.90;;;;;;5082607;28;20213;-88
2022/01/13 07:38:52;;;;;;;0.30;0.10;;;-2.30;99.90;;;;;;5084712;28;20221;-86
2022/01/13 07:41:20;;;;;;;0.30;0.20;;;-2.30;99.90;;;;;;5092793;28;20250;-87
2022/01/13 07:43:52;;;;;;;0.30;0.10;;;-2.30;99.90;;;;;;5093852;28;20647;-87
2022/01/13 07:46:20;;;;;;;0.30;0.10;;;-2.30;99.90;;;;;;5092851;28;20641;-87
2022/01/13 07:48:47;;;;;;;0.30;0.10;;;-2.30;99.90;;;;;;5092322;28;20890;-87
2022/01/13 07:51:14;;;;;;;0.40;0.30;;;-2.30;99.90;;;;;;5092253;28;20253;-86
2022/01/13 07:53:42;;;;;;;0.30;0.10;;;-2.30;99.90;;;;;;5092197;28;20200;-87
2022/01/13 07:56:09;;;;;;;0.30;0.10;;;-2.30;99.90;;;;;;5092227;28;20196;-88
2022/01/13 07:58:37;;;;;;;0.30;0.10;;;-2.20;99.90;;;;;;5092668;28;20289;-89
2022/01/13 08:01:04;;;;;;;0.30;0.10;;;-2.30;99.90;;;;;;5090942;28;20663;-88
2022/01/13 08:03:31;;;;;;;0.30;0.10;;;-2.30;99.90;;;;;;5072144;28;20266;-87
2022/01/13 08:06:00;;;;;;;0.30;0.10;;;-2.30;99.90;;;;;;5072133;28;20202;-88
2022/01/13 08:08:27;;;;;;;0.30;0.10;;;-2.30;99.90;;;;;;5071348;28;20213;-87
2022/01/13 08:10:54;;;;;;;0.30;0.10;;;-2.30;99.90;;;;;;5086033;28;20197;-86
2022/01/13 08:13:21;;;;;;;0.30;0.10;;;-2.30;99.90;;;;;;5091590;28;20690;-87
2022/01/13 08:15:54;;;;;;;0.30;0.10;;;-2.20;99.90;;;;;;5091268;28;20565;-86
2022/01/13 08:21:05;;;;;;;0.30;0.10;;;-2.10;99.90;;;;;;5091272;28;20202;-86
2022/01/13 08:23:32;;;;;;;0.30;0.10;;;-2.10;99.90;;;;;;5091389;28;20254;-85
2022/01/13 08:25:59;;;;;;;0.30;0.10;;;-2.10;99.90;;;;;;5090172;28;20242;-87
2022/01/13 08:28:28;;;;;;;0.40;0.30;;;-2.20;99.90;;;;;;5104236;28;20205;-86
2022/01/13 08:30:56;;;;;;;0.30;0.10;;;-2.20;99.90;;;;;;5102018;28;20189;-87
2022/01/13 08:33:23;;;;;;;0.30;0.10;;;-2.10;99.90;;;;;;5096556;28;20220;-86
2022/01/13 08:35:51;;;;;;;0.40;0.35;;;-2.10;99.90;;;;;;5105494;28;20197;-86
2022/01/13 08:38:19;;;;;;;0.30;0.10;;;-2.00;99.90;;;;;;5092843;28;20686;-86
2022/01/13 08:40:48;;;;;;;0.30;0.10;;;-1.90;99.90;;;;;;5089625;28;20197;-87
2022/01/13 08:43:16;;;;;;;0.30;0.10;;;-1.90;99.90;;;;;;5091500;28;20225;-87
2022/01/13 08:45:44;;;;;;;0.30;0.10;;;-1.70;99.90;;;;;;5091478;28;20247;-87
2022/01/13 08:48:13;;;;;;;0.30;0.20;;;-1.60;99.90;;;;;;5090736;28;20201;-88
2022/01/13 08:50:41;;;;;;;0.30;0.10;;;-1.50;99.90;;;;;;5090999;28;20200;-86
2022/01/13 08:53:08;;;;;;;0.40;0.30;;;-1.50;99.90;;;;;;5090934;28;20220;-86
2022/01/13 08:55:35;;;;;;;0.40;0.20;;;-1.50;99.90;;;;;;5071274;28;20520;-86
2022/01/13 08:58:02;;;;;;;0.40;0.20;;;-1.50;99.90;;;;;;5070306;28;20627;-86
2022/01/13 09:00:29;;;;;;;0.30;0.10;;;-1.30;99.90;;;;;;5071805;28;20641;-87
2022/01/13 09:02:56;;;;;;;0.30;0.10;;;-1.20;99.90;;;;;;5083949;28;20262;-88
2022/01/13 09:05:25;;;;;;;0.30;0.10;;;-1.30;99.90;;;;;;5086181;28;20250;-87
2022/01/13 09:07:52;;;;;;;0.30;0.20;;;-1.40;99.90;;;;;;5091445;28;20205;-87
2022/01/13 09:10:19;;;;;;;0.30;0.10;;;-1.50;99.90;;;;;;5091232;28;20601;-87
2022/01/13 09:12:46;;;;;;;0.30;0.10;;;-1.40;99.90;;;;;;5090704;28;20194;-88
2022/01/13 09:15:18;;;;;;;0.40;0.28;;;-1.30;99.90;;;;;;5091252;28;20263;-88
2022/01/13 09:17:51;;;;;;;0.30;0.20;;;-1.20;99.90;;;;;;5090605;28;20282;-87
2022/01/13 09:20:18;;;;;;;0.30;0.20;;;-1.10;99.90;;;;;;5091414;28;20203;-88
2022/01/13 09:22:47;;;;;;;0.30;0.10;;;-1.20;99.90;;;;;;5071944;28;20202;-87
2022/01/13 09:25:14;;;;;;;0.30;0.10;;;-1.10;99.90;;;;;;5074271;28;20203;-87
2022/01/13 09:27:42;;;;;;;0.30;0.10;;;-1.00;99.90;;;;;;5089586;28;20257;-89
2022/01/13 09:30:10;;;;;;;0.30;0.10;;;-1.10;99.90;;;;;;5090354;28;20619;-87
2022/01/13 09:32:38;;;;;;;0.30;0.10;;;-1.00;99.90;;;;;;5090579;28;20197;-89
2022/01/13 09:35:06;;;;;;;0.52;0.52;;;-1.00;99.90;;;;;;5074789;28;20213;-89
2022/01/13 09:37:34;;;;;;;0.30;0.10;;;-0.90;99.90;;;;;;5090943;28;20197;-87
2022/01/13 09:40:05;;;;;;;0.30;0.10;;;-0.80;99.90;;;;;;5077148;28;20201;-88
2022/01/13 09:42:34;;;;;;;0.30;0.10;;;-0.80;99.90;;;;;;5069854;28;20202;-87
2022/01/13 09:45:02;;;;;;;0.30;0.10;;;-0.70;99.90;;;;;;5070698;28;20204;-88
2022/01/13 09:47:30;;;;;;;0.30;0.10;;;-0.60;99.90;;;;;;5069552;28;20258;-87
2022/01/13 09:50:00;;;;;;;0.30;0.10;;;-0.60;99.90;;;;;;5071257;28;20281;-88
2022/01/13 09:52:28;;;;;;;0.30;0.10;;;-0.60;99.90;;;;;;5074411;28;20200;-87
2022/01/13 09:54:55;;;;;;;0.30;0.10;;;-0.60;99.90;;;;;;5090516;28;20246;-89
2022/01/13 09:57:24;;;;;;;0.30;0.20;;;-0.60;99.90;;;;;;5090066;28;20232;-88
2022/01/13 09:59:51;;;;;;;0.30;0.10;;;-0.40;99.90;;;;;;5089100;28;20311;-87
2022/01/13 10:02:18;;;;;;;0.30;0.10;;;-0.30;99.90;;;;;;5092398;28;20202;-87
2022/01/13 10:04:46;;;;;;;0.30;0.20;;;-0.40;99.90;;;;;;5095865;28;20194;-87
2022/01/13 10:07:17;;;;;;;0.80;0.80;;;-0.50;99.90;;;;;;5108024;28;20229;-87
2022/01/13 10:09:54;;;;;;;0.40;0.32;;;-0.50;99.90;;;;;;5102163;28;20210;-88
2022/01/13 10:12:29;;;;;;;0.30;0.10;;;-0.40;99.90;;;;;;5077016;28;20834;-87
2022/01/13 10:17:49;;;;;;;1.95;0.77;;;-0.50;99.90;;;;;;5070509;28;20273;-89
2022/01/13 10:20:18;;;;;;;0.30;0.20;;;-0.50;99.90;;;;;;5082895;28;20282;-89
2022/01/13 10:22:46;;;;;;;0.30;0.10;;;-0.60;99.90;;;;;;5089582;28;20238;-88
2022/01/13 10:25:32;;;;;;;0.40;0.40;;;-0.60;99.90;;;;;;5084546;28;20198;-88
2022/01/13 10:28:19;;;;;;;0.30;0.20;;;-0.40;99.90;;;;;;5070115;28;21112;-87
2022/01/13 10:30:48;;;;;;;0.90;0.90;;;-0.50;99.90;;;;;;5069936;28;20253;-89
2022/01/13 10:33:17;;;;;;;0.30;0.20;;;-0.40;99.90;;;;;;5082481;28;20202;-87
2022/01/13 10:35:45;;;;;;;0.30;0.20;;;-0.20;99.90;;;;;;5082244;28;20733;-87
2022/01/13 10:38:16;;;;;;;0.30;0.10;;;-0.10;99.90;;;;;;5069883;28;20267;-87
2022/01/13 10:40:46;;;;;;;0.30;0.10;;;-0.20;99.90;;;;;;5069193;28;20283;-88
2022/01/13 10:43:13;;;;;;;0.30;0.10;;;0.00;99.90;;;;;;5069965;28;20225;-88
2022/01/13 10:45:45;;;;;;;1.67;1.58;;;0.00;99.90;;;;;;5070226;28;20232;-88
2022/01/13 10:48:15;;;;;;;0.40;0.32;;;0.20;99.90;;;;;;5075656;28;20197;-87
2022/01/13 10:50:46;;;;;;;0.30;0.10;;;0.30;99.90;;;;;;5090373;28;20251;-88
2022/01/13 10:53:15;;;;;;;0.30;0.10;;;0.20;99.90;;;;;;5089040;28;20206;-89
2022/01/13 10:55:48;;;;;;;0.30;0.10;;;0.40;99.90;;;;;;5089401;28;20435;-88
2022/01/13 10:58:18;;;;;;;0.50;0.45;;;0.30;99.90;;;;;;5081392;28;20287;-89
2022/01/13 11:00:47;;;;;;;0.40;0.40;;;0.70;99.90;;;;;;5088305;28;20585;-88
2022/01/13 11:03:17;;;;;;;0.30;0.20;;;0.70;99.90;;;;;;5088166;28;20238;-89
2022/01/13 11:05:48;;;;;;;0.30;0.20;;;0.70;99.90;;;;;;5087701;28;20200;-89
2022/01/13 11:08:22;;;;;;;0.30;0.10;;;0.80;99.90;;;;;;5088656;28;20283;-89
2022/01/13 11:10:51;;;;;;;0.50;0.30;;;0.70;99.90;;;;;;5087849;28;20207;-88
2022/01/13 11:13:19;;;;;;;0.30;0.10;;;0.70;99.90;;;;;;5074502;28;20211;-88
2022/01/13 11:15:51;;;;;;;0.40;0.32;;;0.60;99.90;;;;;;5084170;28;20198;-88
2022/01/13 11:18:20;;;;;;;0.30;0.10;;;0.60;99.90;;;;;;5093453;28;20221;-87
2022/01/13 11:20:47;;;;;;;0.30;0.10;;;0.50;99.90;;;;;;5092974;28;20202;-89
2022/01/13 11:23:16;;;;;;;0.70;0.52;;;0.50;99.90;;;;;;5093460;28;20190;-86
2022/01/13 11:25:45;;;;;;;0.40;0.40;;;0.40;99.90;;;;;;5081208;28;20668;-87
2022/01/13 11:28:13;;;;;;;0.30;0.10;;;0.40;99.90;;;;;;5072792;28;20276;-88
2022/01/13 11:30:41;;;;;;;0.40;0.20;;;0.20;99.90;;;;;;5091086;28;20268;-88
2022/01/13 11:33:10;;;;;;;0.90;0.90;;;0.20;99.90;;;;;;5089293;28;20652;-87
2022/01/13 11:35:44;;;;;;;0.30;0.20;;;0.30;99.90;;;;;;5080738;28;20264;-89
2022/01/13 11:38:13;;;;;;;0.30;0.10;;;0.40;99.90;;;;;;5089994;28;20190;-89
2022/01/13 11:40:42;;;;;;;0.85;0.80;;;0.50;99.90;;;;;;5110298;28;20222;-89
2022/01/13 11:43:30;;;;;;;0.30;0.10;;;0.60;99.90;;;;;;5106970;28;20196;-87
2022/01/13 11:46:01;;;;;;;1.27;1.27;;;0.60;99.90;;;;;;5109659;28;20217;-87
2022/01/13 11:48:30;;;;;;;0.30;0.10;;;0.70;99.90;;;;;;5100493;28;20237;-87
2022/01/13 11:51:15;;;;;;;0.30;0.10;;;0.70;99.90;;;;;;5094030;28;20672;-87
2022/01/13 11:53:55;;;;;;;0.45;0.45;;;0.60;99.90;;;;;;5091166;28;20205;-85
2022/01/13 11:56:22;;;;;;;0.30;0.20;;;0.80;99.90;;;;;;5092744;28;20277;-86
2022/01/13 11:58:49;;;;;;;0.30;0.22;;;0.90;99.90;;;;;;5092260;28;20991;-87
2022/01/13 12:01:22;;;;;;;0.38;0.20;;;1.10;99.90;;;;;;5091933;28;20641;-87
2022/01/13 12:03:53;;;;;;;1.95;1.15;;;1.10;99.90;;;;;;5092321;28;20587;-87
2022/01/13 12:06:34;;;;;;;0.30;0.10;;;0.90;99.90;;;;;;5092416;28;20229;-87
2022/01/13 12:09:02;;;;;;;0.30;0.10;;;0.80;99.90;;;;;;5091863;28;20281;-87
2022/01/13 12:11:40;;;;;;;0.40;0.30;;;0.90;99.90;;;;;;5078786;28;20208;-86
2022/01/13 12:14:38;;;;;;;0.30;0.10;;;1.00;99.90;;;;;;5071813;28;20297;-87
2022/01/13 12:17:10;;;;;;;0.40;0.35;;;0.90;99.90;;;;;;5088600;28;20203;-87
2022/01/13 12:19:41;;;;;;;0.30;0.10;;;1.10;99.90;;;;;;5091681;28;20220;-87
2022/01/13 12:22:14;;;;;;;0.60;0.60;;;1.10;99.90;;;;;;5085111;28;20205;-87
2022/01/13 12:24:47;;;;;;;0.55;0.52;;;1.00;99.90;;;;;;5071620;28;20239;-88
2022/01/13 12:27:14;;;;;;;0.30;0.10;;;1.20;99.90;;;;;;5071440;28;20261;-89
2022/01/13 12:29:47;;;;;;;5.68;2.55;;;1.20;99.90;;;;;;5071827;28;20203;-89
2022/01/13 12:32:17;;;;;;;0.45;0.38;;;1.10;99.90;;;;;;5071664;28;20270;-89
2022/01/13 12:34:51;;;;;;;0.30;0.10;;;1.10;99.90;;;;;;5071576;28;20207;-89
2022/01/13 12:37:29;;;;;;;0.30;0.20;;;1.20;99.90;;;;;;5080605;28;20247;-88
2022/01/13 12:40:00;;;;;;;0.88;0.85;;;1.20;99.90;;;;;;5090165;28;20280;-88
2022/01/13 12:42:36;;;;;;;1.95;1.40;;;1.10;99.90;;;;;;5089712;28;20980;-89
2022/01/13 12:47:49;;;;;;;0.68;0.30;;;1.20;99.90;;;;;;5091274;28;20265;-89
2022/01/13 12:50:21;;;;;;;0.40;0.30;;;1.30;99.90;;;;;;5091019;28;20204;-89
2022/01/13 12:52:49;;;;;;;1.17;1.17;;;1.30;99.90;;;;;;5091721;28;20199;-89
2022/01/13 12:55:16;;;;;;;0.30;0.20;;;1.40;99.90;;;;;;5075243;28;20258;-89
2022/01/13 12:57:45;;;;;;;0.30;0.10;;;1.20;99.90;;;;;;5071189;28;20688;-88
2022/01/13 13:00:14;;;;;;;0.30;0.10;;;1.30;99.90;;;;;;5070683;28;20256;-88
2022/01/13 13:02:55;;;;;;;0.30;0.10;;;1.20;99.90;;;;;;5081419;28;20202;-88
2022/01/13 13:05:51;;;;;;;0.40;0.40;;;1.00;99.90;;;;;;5091248;28;20203;-89
2022/01/13 13:08:20;;;;;;;1.20;1.20;;;1.00;99.90;;;;;;5061960;28;20287;-88
2022/01/13 13:10:50;;;;;;;0.30;0.10;;;0.90;99.90;;;;;;5070563;28;20278;-89
2022/01/13 13:13:19;;;;;;;0.82;0.82;;;0.90;99.90;;;;;;5079411;28;20207;-89
2022/01/13 13:15:54;;;;;;;0.50;0.50;;;0.90;99.90;;;;;;5100955;28;20183;-89
2022/01/13 13:18:23;;;;;;;0.30;0.20;;;1.00;99.90;;;;;;5088187;28;20756;-89
2022/01/13 13:20:52;;;;;;;0.45;0.38;;;1.00;99.90;;;;;;5104996;28;20570;-89